createdAt,value
2023-02-09T00:00:37.449Z,18.03
2023-02-09T00:03:39.041Z,19.67
2023-02-09T00:06:40.503Z,19.92
2023-02-09T00:09:41.991Z,20.20
2023-02-09T00:13:02.018Z,20.70
2023-02-09T00:16:04.069Z,21.30
2023-02-09T00:19:05.750Z,21.25
2023-02-09T00:22:07.319Z,20.42
2023-02-09T00:25:08.737Z,21.15
2023-02-09T00:28:10.221Z,19.73
2023-02-09T00:31:12.739Z,22.00
2023-02-09T00:34:17.483Z,21.27
2023-02-09T00:37:18.980Z,20.83
2023-02-09T00:40:20.640Z,20.05
2023-02-09T00:43:22.106Z,19.85
2023-02-09T00:46:23.510Z,21.73
2023-02-09T00:49:25.034Z,21.40
2023-02-09T00:52:26.493Z,21.25
2023-02-09T00:55:28.328Z,20.88
2023-02-09T00:58:29.866Z,20.77
2023-02-09T01:01:31.393Z,19.98
2023-02-09T01:04:33.272Z,22.70
2023-02-09T01:07:34.952Z,20.00
2023-02-09T01:10:38.003Z,21.20
2023-02-09T01:13:39.897Z,19.87
2023-02-09T01:16:41.502Z,20.40
2023-02-09T01:19:42.964Z,21.50
2023-02-09T01:22:44.471Z,23.98
2023-02-09T01:25:45.955Z,23.33
2023-02-09T01:28:52.384Z,22.38
2023-02-09T01:31:54.002Z,21.33
2023-02-09T01:34:55.671Z,22.67
2023-02-09T01:37:57.164Z,20.95
2023-02-09T01:40:58.613Z,21.70
2023-02-09T01:44:02.894Z,20.73
2023-02-09T01:47:04.429Z,20.90
2023-02-09T01:50:06.370Z,20.25
2023-02-09T01:53:08.533Z,19.45
2023-02-09T01:56:18.458Z,20.83
2023-02-09T01:59:20.410Z,21.73
2023-02-09T02:02:22.865Z,20.55
2023-02-09T02:05:25.711Z,20.23
2023-02-09T02:08:34.689Z,20.10
2023-02-09T02:11:37.717Z,21.67
2023-02-09T02:14:40.005Z,22.40
2023-02-09T02:17:50.583Z,21.17
2023-02-09T02:21:11.398Z,20.00
2023-02-09T02:24:48.381Z,21.02
2023-02-09T02:28:08.033Z,21.27
2023-02-09T02:31:39.944Z,22.40
2023-02-09T02:34:53.165Z,23.50
2023-02-09T02:38:15.171Z,21.00
2023-02-09T02:41:26.803Z,21.63
2023-02-09T02:44:30.560Z,22.65
2023-02-09T02:47:37.156Z,22.85
2023-02-09T02:50:46.064Z,21.60
2023-02-09T02:53:53.020Z,21.27
2023-02-09T02:56:58.619Z,20.52
2023-02-09T03:00:06.336Z,23.80
2023-02-09T03:03:18.278Z,21.67
2023-02-09T03:06:19.779Z,21.90
2023-02-09T03:09:21.239Z,21.85
2023-02-09T03:12:45.656Z,22.85
2023-02-09T03:19:25.307Z,21.10
2023-02-09T03:22:35.381Z,21.55
2023-02-09T03:25:48.686Z,20.73
2023-02-09T03:28:54.524Z,20.23
2023-02-09T03:31:56.854Z,19.98
2023-02-09T03:34:59.060Z,21.30
2023-02-09T03:38:01.385Z,21.23
2023-02-09T03:41:03.223Z,21.38
2023-02-09T03:44:23.222Z,19.95
2023-02-09T03:47:24.725Z,22.00
2023-02-09T03:50:26.289Z,21.02
2023-02-09T03:53:27.796Z,21.58
2023-02-09T03:56:29.275Z,22.73
2023-02-09T03:59:31.164Z,21.02
2023-02-09T04:02:32.654Z,21.42
2023-02-09T04:05:34.113Z,21.50
2023-02-09T04:08:36.188Z,21.75
2023-02-09T04:11:37.638Z,21.25
2023-02-09T04:14:39.866Z,19.83
2023-02-09T04:17:41.378Z,21.63
2023-02-09T04:20:43.010Z,20.73
2023-02-09T04:23:44.629Z,22.25
2023-02-09T04:26:46.122Z,19.58
2023-02-09T04:29:47.550Z,21.45
2023-02-09T04:32:49.047Z,20.02
2023-02-09T04:35:51.637Z,22.35
2023-02-09T04:38:53.150Z,20.75
2023-02-09T04:41:54.611Z,20.95
2023-02-09T04:44:56.077Z,20.10
2023-02-09T04:47:57.573Z,21.00
2023-02-09T04:50:59.087Z,19.63
2023-02-09T04:54:00.571Z,21.38
2023-02-09T04:57:20.514Z,21.30
2023-02-09T05:00:22.107Z,22.65
2023-02-09T05:03:25.978Z,21.88
2023-02-09T05:09:29.920Z,20.92
2023-02-09T05:12:31.374Z,23.17
2023-02-09T05:15:32.945Z,21.80
2023-02-09T05:18:35.475Z,20.77
2023-02-09T05:21:36.906Z,20.38
2023-02-09T05:24:38.423Z,19.77
2023-02-09T05:27:39.899Z,20.15
2023-02-09T05:30:41.577Z,20.33
2023-02-09T05:33:49.129Z,20.55
2023-02-09T05:36:50.679Z,22.70
2023-02-09T05:39:52.883Z,22.70
2023-02-09T05:42:55.048Z,21.98
2023-02-09T05:45:57.120Z,22.40
2023-02-09T05:48:58.621Z,21.23
2023-02-09T05:52:00.383Z,22.70
2023-02-09T05:55:02.004Z,19.88
2023-02-09T05:58:03.463Z,21.90
2023-02-09T06:01:05.460Z,22.30
2023-02-09T06:04:09.071Z,23.88
2023-02-09T06:07:12.048Z,25.27
2023-02-09T06:10:14.012Z,26.57
2023-02-09T06:13:15.845Z,21.70
2023-02-09T06:16:17.285Z,20.55
2023-02-09T06:19:21.220Z,21.48
2023-02-09T06:25:24.107Z,20.42
2023-02-09T06:28:25.705Z,19.83
2023-02-09T06:31:27.376Z,20.23
2023-02-09T06:34:29.065Z,19.83
2023-02-09T06:37:30.565Z,19.88
2023-02-09T06:40:32.067Z,18.48
2023-02-09T06:43:33.815Z,20.75
2023-02-09T06:46:35.374Z,19.70
2023-02-09T06:49:36.909Z,20.15
2023-02-09T06:52:38.775Z,20.23
2023-02-09T06:55:40.208Z,19.50
2023-02-09T06:58:42.247Z,20.75
2023-02-09T07:01:43.845Z,20.58
2023-02-09T07:04:45.413Z,19.30
2023-02-09T07:07:47.078Z,18.20
2023-02-09T07:10:48.546Z,19.23
2023-02-09T07:13:50.035Z,18.80
2023-02-09T07:16:51.573Z,18.83
2023-02-09T07:19:53.134Z,22.15
2023-02-09T07:22:54.644Z,20.90
2023-02-09T07:25:56.358Z,19.95
2023-02-09T07:28:57.793Z,20.35
2023-02-09T07:31:59.830Z,19.60
2023-02-09T07:35:01.359Z,20.25
2023-02-09T07:38:02.858Z,21.05
2023-02-09T07:41:06.330Z,22.23
2023-02-09T07:44:09.263Z,19.90
2023-02-09T07:47:10.812Z,20.05
2023-02-09T07:50:12.262Z,19.75
2023-02-09T07:53:13.758Z,20.88
2023-02-09T07:56:17.990Z,19.50
2023-02-09T07:59:19.535Z,18.38
2023-02-09T08:02:48.867Z,17.00
2023-02-09T08:06:19.673Z,16.48
2023-02-09T08:09:21.695Z,16.83
2023-02-09T08:12:48.119Z,17.30
2023-02-09T08:15:57.330Z,16.17
2023-02-09T08:19:04.219Z,17.58
2023-02-09T08:22:05.670Z,16.52
2023-02-09T08:25:11.021Z,17.52
2023-02-09T08:28:12.611Z,18.77
2023-02-09T08:31:18.879Z,20.77
2023-02-09T08:34:20.509Z,27.10
2023-02-09T08:37:22.173Z,21.48
2023-02-09T08:40:23.708Z,19.13
2023-02-09T08:43:25.182Z,17.20
2023-02-09T08:46:26.986Z,17.83
2023-02-09T08:49:28.595Z,18.05
2023-02-09T08:52:30.082Z,17.65
2023-02-09T08:55:33.672Z,16.67
2023-02-09T08:58:35.282Z,17.75
2023-02-09T09:01:38.919Z,16.58
2023-02-09T09:04:40.417Z,16.77
2023-02-09T09:07:42.107Z,17.23
2023-02-09T09:10:43.556Z,15.68
2023-02-09T09:13:45.058Z,16.98
2023-02-09T09:16:46.626Z,17.00
2023-02-09T09:19:48.357Z,17.58
2023-02-09T09:22:49.879Z,15.95
2023-02-09T09:25:51.414Z,16.77
2023-02-09T09:28:53.043Z,15.57
2023-02-09T09:31:54.501Z,15.00
2023-02-09T09:34:58.873Z,16.65
2023-02-09T09:38:00.835Z,15.40
2023-02-09T09:41:04.729Z,16.90
2023-02-09T09:48:54.040Z,15.75
2023-02-09T09:51:58.125Z,16.75
2023-02-09T09:58:06.711Z,15.93
2023-02-09T10:01:17.437Z,15.98
2023-02-09T10:04:21.092Z,16.83
2023-02-09T10:07:30.875Z,15.93
2023-02-09T10:10:45.675Z,16.63
2023-02-09T10:13:50.504Z,16.23
2023-02-09T10:16:52.076Z,17.42
2023-02-09T10:20:07.515Z,16.25
2023-02-09T10:23:20.857Z,17.83
2023-02-09T10:26:27.792Z,16.50
2023-02-09T10:29:29.316Z,17.48
2023-02-09T10:32:41.039Z,17.42
2023-02-09T10:35:51.478Z,17.23
2023-02-09T10:39:03.289Z,19.08
2023-02-09T10:42:20.411Z,18.27
2023-02-09T10:45:27.683Z,19.15
2023-02-09T10:48:40.616Z,22.08
2023-02-09T10:51:42.124Z,24.70
2023-02-09T10:54:56.695Z,22.08
2023-02-09T10:58:08.446Z,22.13
2023-02-09T11:01:09.984Z,24.23
2023-02-09T11:04:20.416Z,22.50
2023-02-09T11:07:26.680Z,20.90
2023-02-09T11:10:30.697Z,20.65
2023-02-09T11:13:33.616Z,19.17
2023-02-09T11:16:53.567Z,18.45
2023-02-09T11:20:32.147Z,17.20
2023-02-09T11:24:03.069Z,16.98
2023-02-09T11:27:23.839Z,16.33
2023-02-09T11:30:35.617Z,14.73
2023-02-09T11:34:09.041Z,15.68
2023-02-09T11:37:25.146Z,16.88
2023-02-09T11:40:44.030Z,17.65
2023-02-09T11:43:48.846Z,15.95
2023-02-09T11:46:58.576Z,17.85
2023-02-09T11:50:05.654Z,17.27
2023-02-09T11:53:26.187Z,15.40
2023-02-09T11:56:28.732Z,18.70
2023-02-09T11:59:39.120Z,17.40
2023-02-09T12:02:51.345Z,17.25
2023-02-09T12:05:54.099Z,17.40
2023-02-09T12:09:11.737Z,17.90
2023-02-09T12:12:28.000Z,15.63
2023-02-09T12:15:40.725Z,18.10
2023-02-09T12:18:45.292Z,16.58
2023-02-09T12:21:46.797Z,18.52
2023-02-09T12:25:22.689Z,18.02
2023-02-09T12:28:24.232Z,19.08
2023-02-09T12:31:27.392Z,17.83
2023-02-09T12:34:51.365Z,18.38
2023-02-09T12:38:19.551Z,19.03
2023-02-09T12:41:24.412Z,18.50
2023-02-09T12:44:25.839Z,17.23
2023-02-09T12:47:45.112Z,20.00
2023-02-09T12:50:53.521Z,17.30
2023-02-09T12:53:56.114Z,19.05
2023-02-09T12:57:16.160Z,18.73
2023-02-09T13:00:18.759Z,18.30
2023-02-09T13:03:23.248Z,19.27
2023-02-09T13:06:39.303Z,18.77
2023-02-09T13:09:42.574Z,20.00
2023-02-09T13:12:50.574Z,20.90
2023-02-09T13:16:23.664Z,19.00
2023-02-09T13:19:48.926Z,19.02
2023-02-09T13:22:50.399Z,18.52
2023-02-09T13:26:00.422Z,18.55
2023-02-09T13:29:21.762Z,19.45
2023-02-09T13:32:34.774Z,19.17
2023-02-09T13:35:57.187Z,18.98
2023-02-09T13:38:58.931Z,18.00
2023-02-09T13:42:00.669Z,17.55
2023-02-09T13:45:02.430Z,14.93
2023-02-09T13:48:20.061Z,18.55
2023-02-09T13:51:23.586Z,17.85
2023-02-09T13:54:25.085Z,18.40
2023-02-09T13:57:33.888Z,18.35
2023-02-09T14:00:41.109Z,19.50
2023-02-09T14:03:58.528Z,17.63
2023-02-09T14:07:08.408Z,19.30
2023-02-09T14:10:16.999Z,19.67
2023-02-09T14:13:31.308Z,19.55
2023-02-09T14:16:41.662Z,19.17
2023-02-09T14:19:54.890Z,19.45
2023-02-09T14:22:58.987Z,20.73
2023-02-09T14:26:20.907Z,19.35
2023-02-09T14:29:31.359Z,18.95
2023-02-09T14:32:38.173Z,18.40
2023-02-09T14:35:41.249Z,19.80
2023-02-09T14:38:42.889Z,19.20
2023-02-09T14:42:17.653Z,18.00
2023-02-09T14:45:35.309Z,17.52
2023-02-09T14:48:36.853Z,18.63
2023-02-09T14:51:38.425Z,19.27
2023-02-09T14:54:48.961Z,18.67
2023-02-09T14:57:50.391Z,18.90
2023-02-09T15:00:54.102Z,18.70
2023-02-09T15:03:55.664Z,19.20
2023-02-09T15:07:01.716Z,18.75
2023-02-09T15:10:15.852Z,18.85
2023-02-09T15:13:17.421Z,18.20
2023-02-09T15:16:19.012Z,18.08
2023-02-09T15:19:22.391Z,17.65
2023-02-09T15:22:24.414Z,18.20
2023-02-09T15:25:26.227Z,18.83
2023-02-09T15:28:28.712Z,18.55
2023-02-09T15:31:30.484Z,17.67
2023-02-09T15:34:31.996Z,18.00
2023-02-09T15:37:37.057Z,17.35
2023-02-09T15:41:01.226Z,18.60
2023-02-09T15:44:34.368Z,19.50
2023-02-09T15:47:52.783Z,19.92
2023-02-09T15:50:55.119Z,19.23
2023-02-09T15:54:00.152Z,18.85
2023-02-09T15:57:01.663Z,20.00
2023-02-09T16:00:14.737Z,18.70
2023-02-09T16:03:19.141Z,18.33
2023-02-09T16:06:26.409Z,20.90
2023-02-09T16:09:29.260Z,18.63
2023-02-09T16:12:30.785Z,19.80
2023-02-09T16:15:32.278Z,19.02
2023-02-09T16:18:33.915Z,18.83
2023-02-09T16:21:36.122Z,20.45
2023-02-09T16:24:55.770Z,21.20
2023-02-09T16:27:58.038Z,19.73
2023-02-09T16:30:59.703Z,19.48
2023-02-09T16:34:01.239Z,20.35
2023-02-09T16:37:03.975Z,20.40
2023-02-09T16:40:28.753Z,20.77
2023-02-09T16:46:33.634Z,20.30
2023-02-09T16:49:37.309Z,22.70
2023-02-09T16:52:42.923Z,25.40
2023-02-09T16:55:48.813Z,25.33
2023-02-09T16:58:50.811Z,24.45
2023-02-09T17:01:52.387Z,23.42
2023-02-09T17:04:54.251Z,23.33
2023-02-09T17:08:05.548Z,24.52
2023-02-09T17:11:07.764Z,24.83
2023-02-09T17:14:09.476Z,25.40
2023-02-09T17:17:19.004Z,23.40
2023-02-09T17:20:29.417Z,22.63
2023-02-09T17:23:31.036Z,22.17
2023-02-09T17:26:32.573Z,23.65
2023-02-09T17:29:34.149Z,22.90
2023-02-09T17:32:36.426Z,24.20
2023-02-09T17:36:17.534Z,23.13
2023-02-09T17:39:01.637Z,23.27
2023-02-09T17:42:03.339Z,22.20
2023-02-09T17:45:05.042Z,21.63
2023-02-09T17:48:08.970Z,24.38
2023-02-09T17:51:20.197Z,24.10
2023-02-09T17:54:21.749Z,24.08
2023-02-09T17:57:23.608Z,23.75
2023-02-09T18:00:26.425Z,23.70
2023-02-09T18:03:28.017Z,25.85
2023-02-09T18:06:38.869Z,24.52
2023-02-09T18:09:40.357Z,23.48
2023-02-09T18:12:42.360Z,23.45
2023-02-09T18:15:44.466Z,23.48
2023-02-09T18:18:47.157Z,22.67
2023-02-09T18:21:50.486Z,22.50
2023-02-09T18:24:52.072Z,22.53
2023-02-09T18:27:54.436Z,23.80
2023-02-09T18:30:56.127Z,22.90
2023-02-09T18:33:57.722Z,22.67
2023-02-09T18:36:59.233Z,21.77
2023-02-09T18:40:00.679Z,24.95
2023-02-09T18:43:04.875Z,24.17
2023-02-09T18:46:06.622Z,30.48
2023-02-09T18:49:12.012Z,36.22
2023-02-09T18:52:20.834Z,31.10
2023-02-09T18:55:24.711Z,27.40
2023-02-09T18:58:26.281Z,26.25
2023-02-09T19:01:27.807Z,26.52
2023-02-09T19:04:29.395Z,26.38
2023-02-09T19:07:32.295Z,24.27
2023-02-09T19:10:35.963Z,23.52
2023-02-09T19:13:37.566Z,23.75
2023-02-09T19:16:41.103Z,24.08
2023-02-09T19:19:43.365Z,24.50
2023-02-09T19:22:47.146Z,28.63
2023-02-09T19:25:48.814Z,24.00
2023-02-09T19:28:50.445Z,24.65
2023-02-09T19:31:55.868Z,28.48
2023-02-09T19:34:57.360Z,26.20
2023-02-09T19:37:59.253Z,26.25
2023-02-09T19:41:10.768Z,24.48
2023-02-09T19:44:12.876Z,23.45
2023-02-09T19:47:14.948Z,25.40
2023-02-09T19:50:16.893Z,29.45
2023-02-09T19:53:18.379Z,27.55
2023-02-09T19:56:20.857Z,26.98
2023-02-09T19:59:22.411Z,30.33
2023-02-09T20:02:23.972Z,27.45
2023-02-09T20:05:25.500Z,26.08
2023-02-09T20:08:26.992Z,27.60
2023-02-09T20:11:28.559Z,24.30
2023-02-09T20:14:31.630Z,22.80
2023-02-09T20:17:34.940Z,27.90
2023-02-09T20:20:41.060Z,22.77
2023-02-09T20:23:44.966Z,23.05
2023-02-09T20:26:48.129Z,23.13
2023-02-09T20:29:49.994Z,40.95
2023-02-09T20:32:51.609Z,34.58
2023-02-09T20:35:53.155Z,25.05
2023-02-09T20:38:54.952Z,25.20
2023-02-09T20:42:16.936Z,24.55
2023-02-09T20:45:36.977Z,25.27
2023-02-09T20:48:38.566Z,23.67
2023-02-09T20:51:40.379Z,23.73
2023-02-09T20:54:41.974Z,23.50
2023-02-09T20:57:43.516Z,23.25
2023-02-09T21:00:45.371Z,22.02
2023-02-09T21:03:46.882Z,24.27
2023-02-09T21:06:48.440Z,21.95
2023-02-09T21:09:49.931Z,24.52
2023-02-09T21:12:51.489Z,24.88
2023-02-09T21:15:53.031Z,22.38
2023-02-09T21:18:54.549Z,22.17
2023-02-09T21:21:56.623Z,22.00
2023-02-09T21:24:58.124Z,23.90
2023-02-09T21:27:59.742Z,23.00
2023-02-09T21:31:01.425Z,23.33
2023-02-09T21:34:03.983Z,24.08
2023-02-09T21:37:07.963Z,22.10
2023-02-09T21:43:12.337Z,28.00
2023-02-09T21:46:16.894Z,22.77
2023-02-09T21:49:18.467Z,21.00
2023-02-09T21:52:20.086Z,21.45
2023-02-09T21:55:22.027Z,21.75
2023-02-09T21:58:23.487Z,22.30
2023-02-09T22:01:25.101Z,21.27
2023-02-09T22:04:26.553Z,20.48
2023-02-09T22:07:28.135Z,20.85
2023-02-09T22:10:29.593Z,20.65
2023-02-09T22:13:31.112Z,20.73
2023-02-09T22:16:32.726Z,20.30
2023-02-09T22:19:34.619Z,19.98
2023-02-09T22:22:36.116Z,19.48
2023-02-09T22:25:37.615Z,21.02
2023-02-09T22:28:39.940Z,20.88
2023-02-09T22:31:42.206Z,22.48
2023-02-09T22:34:43.661Z,23.05
2023-02-09T22:37:45.382Z,21.17
2023-02-09T22:40:46.857Z,22.13
2023-02-09T22:44:05.948Z,21.33
2023-02-09T22:47:07.466Z,22.55
2023-02-09T22:50:09.195Z,21.75
2023-02-09T22:53:10.639Z,23.15
2023-02-09T22:56:13.268Z,20.45
2023-02-09T22:59:15.733Z,20.75
2023-02-09T23:02:17.420Z,19.77
2023-02-09T23:05:18.856Z,20.40
2023-02-09T23:08:22.332Z,22.38
2023-02-09T23:14:26.251Z,27.67
2023-02-09T23:17:27.765Z,26.95
2023-02-09T23:20:29.269Z,22.73
2023-02-09T23:23:30.935Z,24.80
2023-02-09T23:26:32.970Z,22.20
2023-02-09T23:29:34.572Z,22.20
2023-02-09T23:32:36.116Z,20.95
2023-02-09T23:35:41.697Z,19.52
2023-02-09T23:38:44.924Z,19.95
2023-02-09T23:41:46.670Z,19.70
2023-02-09T23:44:48.206Z,18.38
2023-02-09T23:47:49.860Z,19.27
2023-02-09T23:50:51.324Z,19.88
2023-02-09T23:53:54.267Z,20.58
2023-02-09T23:56:55.741Z,21.42
2023-02-09T23:59:57.471Z,19.35
